Wilmington, NC (28411)

6:24 PM EDT on August 21, 2014 (GMT -0400)
Middle Sound Loop Rd | Change Station
CLOSE
Current Station
Personal Weather Station
Location: Wilmington, NC
Elevation: 33 ft
Nearby Weather Stations

Elev 33 ft 34.27 °N, 77.82 °W | Updated 8 seconds ago

Clear
Clear
88.3 °F
Feels Like 95 °F
N
2.0
Wind Variable Wind from West
Gusts 5.0 mph

Today
High -- | Low -- °F
--% Chance of Precip.
Yesterday
High -- | Low -- °F
Precip. -- in
6:37 AM 7:51 PM
Waning Crescent, 12% visible
Pressure 30.01 in
Visibility 10.0 miles
Clouds Clear
Heat Index 95 °F
Dew Point 72 °F
Humidity 58%
Rainfall 0.00 in
Snow Depth Not available.
UV 2 out of 12
Pollen 7.60 out of 12
Air Quality Not available.
Flu Activity Not available.
METAR KILM 212153Z 26004KT 10SM CLR 31/22 A3001 RMK AO2 SLP161 T03060222

More Conditions Fewer Conditions

Pressure 30.01 in
Visibility 10.0 miles
Clouds Clear
Heat Index 95 °F
Dew Point 72 °F
Humidity 58%
Rainfall 0.00 in
Snow Depth Not available.
UV 2 out of 12
Pollen 7.60 out of 12
Air Quality Not available.
Flu Activity Not available.
METAR KILM 212153Z 26004KT 10SM CLR 31/22 A3001 RMK AO2 SLP161 T03060222

More Conditions Fewer Conditions

10-Day Weather Forecast

Almanac

Astronomy

Aug. 21, 2014 Rise Set
Actual Time 6:37 AM EDT 7:51 PM EDT
Civil Twilight 6:11 AM EDT 8:17 PM EDT
Nautical Twilight 5:39 AM EDT 8:49 PM EDT
Astronomical Twilight 5:07 AM EDT 9:21 PM EDT
Moon 3:10 AM EDT 5:15 PM EDT
Length of Visible Light 14h 06m
Length of Day
13h 14m
Tomorrow will be 1m 56s shorter.
Waning Crescent, 12% of the Moon is Illuminated
Today
Waning Crescent
Aug 25
New
Sep 2
First Quarter
Sep 8
Full
Sep 15
Last Quarter

Today's Extremes

State Highs State Lows

Community

WunderPhotos

Upload Photos

1,746,038 photos uploaded!

WunderBlogs® & News

Nearby

Snow Depth

Station Depth Elevation
No new snow has been reported.

Earthquake Activity

City Distance Mag. Time & Date
No recent earthquake activity has been reported nearby.
Minimum magnitude displayed is 2.5.

Coastal Water Temperatures

Place Temperature
Johnny Mercer Pier, Wrightsville Beach, NC 84.0 °F
Beaufort, NC 82.9 °F
Springmaid Pier, SC 84.0 °F

Nearby Weather Stations